Time;durP1;ratioP1;P1;durP2;ratioP2;P2;SDS_P1;SDS_P2;PMS_P1;PMS_P2;Temp;Humidity;BMP_temperature;BMP_pressure;BME280_temperature;BME280_humidity;BME280_pressure;Samples;Min_cycle;Max_cycle;Signal;HPM_P1;HPM_P2
2023/01/15 00:00:51;;;;;;;94.65;52.45;;;128.80;2252.80;;;;;;4829002;29;20063;-88
2023/01/15 00:03:18;;;;;;;87.95;53.15;;;128.90;2252.80;;;;;;4829592;29;20133;-88
2023/01/15 00:05:43;;;;;;;94.75;54.53;;;128.90;1868.80;;;;;;4829349;29;20030;-87
2023/01/15 00:08:09;;;;;;;88.63;50.78;;;128.90;2252.80;;;;;;4829995;29;20386;-89
2023/01/15 00:10:35;;;;;;;94.97;56.97;;;128.90;2252.80;;;;;;4830030;29;20117;-87
2023/01/15 00:13:01;;;;;;;96.95;57.95;;;128.90;2252.80;;;;;;4839435;29;20086;-91
2023/01/15 00:15:27;;;;;;;96.22;56.38;;;128.90;2252.80;;;;;;4853498;29;20044;-89
2023/01/15 00:17:52;;;;;;;87.85;53.13;;;153.60;2252.80;;;;;;4853703;29;20014;-88
2023/01/15 00:20:18;;;;;;;91.15;55.28;;;153.60;2252.80;;;;;;4853222;29;21116;-85
2023/01/15 00:22:44;;;;;;;86.10;52.42;;;153.60;2252.80;;;;;;4832550;29;20030;-89
2023/01/15 00:27:54;;;;;;;102.50;58.83;;;153.60;2252.80;;;;;;4864680;29;20084;-87
2023/01/15 00:30:20;;;;;;;104.32;58.92;;;128.90;2252.80;;;;;;4848416;29;20034;-90
2023/01/15 00:32:46;;;;;;;99.00;58.50;;;128.90;2252.80;;;;;;4848335;29;20389;-89
2023/01/15 00:35:18;;;;;;;95.90;57.65;;;128.90;2252.80;;;;;;4848184;29;20029;-88
2023/01/15 00:37:44;;;;;;;101.30;57.67;;;128.90;2252.80;;;;;;4847976;29;20029;-88
2023/01/15 00:40:10;;;;;;;105.38;62.72;;;128.90;2252.80;;;;;;4847862;29;20089;-89
2023/01/15 00:42:36;;;;;;;108.70;61.92;;;128.90;2252.80;;;;;;4847763;29;20098;-89
2023/01/15 00:45:08;;;;;;;112.88;65.15;;;128.90;2252.80;;;;;;4847609;29;20033;-87
2023/01/15 00:47:35;;;;;;;114.25;63.03;;;128.90;2252.80;;;;;;4847252;29;20033;-88
2023/01/15 00:50:01;;;;;;;101.07;57.42;;;128.90;2252.80;;;;;;4847382;29;20046;-89
2023/01/15 00:52:27;;;;;;;111.38;63.38;;;153.80;2252.80;;;;;;4847646;29;20026;-88
2023/01/15 00:54:53;;;;;;;107.75;61.72;;;128.90;2252.80;;;;;;4847388;29;20124;-86
2023/01/15 00:57:19;;;;;;;128.13;66.38;;;128.90;2252.80;;;;;;4847476;29;20029;-89
2023/01/15 00:59:45;;;;;;;104.07;61.33;;;128.90;2252.80;;;;;;4846338;29;20504;-87
2023/01/15 01:02:10;;;;;;;103.50;57.25;;;128.90;2252.80;;;;;;4846794;29;20030;-87
2023/01/15 01:04:36;;;;;;;112.07;61.15;;;128.80;2252.80;;;;;;4847466;29;20033;-87
2023/01/15 01:07:02;;;;;;;100.18;57.75;;;128.80;2252.80;;;;;;4850029;29;20044;-88
2023/01/15 01:09:28;;;;;;;102.28;56.25;;;128.70;2252.80;;;;;;4855749;29;20029;-89
2023/01/15 01:11:54;;;;;;;107.03;57.85;;;128.60;2252.80;;;;;;4854767;29;20029;-88
2023/01/15 01:14:19;;;;;;;99.97;54.75;;;128.70;2252.80;;;;;;4862374;29;20037;-87
2023/01/15 01:16:45;;;;;;;98.28;56.13;;;128.70;2252.80;;;;;;4846216;29;20118;-88
2023/01/15 01:19:15;;;;;;;93.22;57.67;;;128.60;2252.80;;;;;;4846312;29;20043;-87
2023/01/15 01:21:42;;;;;;;94.03;52.60;;;128.70;2252.80;;;;;;4847791;29;20435;-90
2023/01/15 01:24:11;;;;;;;96.47;52.28;;;128.70;2252.80;;;;;;4847288;29;20466;-90
2023/01/15 01:26:37;;;;;;;92.93;50.88;;;128.60;2252.80;;;;;;4839347;29;20479;-89
2023/01/15 01:29:03;;;;;;;95.88;52.60;;;128.70;2252.80;;;;;;4828854;29;20037;-90
2023/01/15 01:31:29;;;;;;;106.60;58.25;;;128.70;2252.80;;;;;;4828737;29;20033;-91
2023/01/15 01:33:57;;;;;;;114.85;58.67;;;128.60;2252.80;;;;;;4828653;29;20038;-89
2023/01/15 01:36:32;;;;;;;102.70;54.75;;;128.70;2252.80;;;;;;4828668;29;20037;-90
2023/01/15 01:38:59;;;;;;;104.03;54.50;;;128.70;2252.80;;;;;;4828658;29;20383;-89
2023/01/15 01:41:26;;;;;;;98.93;53.97;;;128.70;2252.80;;;;;;4828744;29;20038;-89
2023/01/15 01:43:58;;;;;;;106.70;60.47;;;128.80;2252.80;;;;;;4828772;29;20033;-88
2023/01/15 01:46:25;;;;;;;;;;;128.70;2252.80;;;;;;4829052;29;20030;-89
2023/01/15 01:48:55;;;;;;;91.78;50.47;;;128.70;2252.80;;;;;;4828570;29;19908;-90
2023/01/15 01:51:26;;;;;;;98.95;55.72;;;128.80;2252.80;;;;;;4828610;29;20030;-90
2023/01/15 01:53:52;;;;;;;105.90;61.53;;;128.80;2252.80;;;;;;4828801;29;20382;-89
2023/01/15 01:56:18;;;;;;;124.65;67.22;;;128.70;2252.80;;;;;;4828401;29;20034;-90
2023/01/15 01:58:52;;;;;;;109.78;59.35;;;128.70;2252.80;;;;;;4828484;29;20125;-89
2023/01/15 02:01:19;;;;;;;99.38;55.03;;;128.60;2252.80;;;;;;4828847;29;20065;-89
2023/01/15 02:03:45;;;;;;;104.80;57.05;;;128.70;2252.80;;;;;;4828500;29;20038;-89
2023/01/15 02:06:13;;;;;;;110.55;63.03;;;128.70;2252.80;;;;;;4827791;29;20061;-90
2023/01/15 02:08:39;;;;;;;105.90;58.75;;;128.70;2252.80;;;;;;4843289;29;20042;-89
2023/01/15 02:11:07;;;;;;;118.75;59.40;;;128.70;2252.80;;;;;;4842457;29;20034;-87
2023/01/15 02:14:03;;;;;;;140.35;81.63;;;128.60;2252.80;;;;;;4843162;29;20030;-89
2023/01/15 02:16:52;;;;;;;132.32;70.47;;;128.50;2252.80;;;;;;4843220;29;20066;-90
2023/01/15 02:19:51;;;;;;;117.90;60.45;;;128.60;2252.80;;;;;;4827861;29;20089;-90
2023/01/15 02:22:20;;;;;;;112.40;54.38;;;128.50;2252.80;;;;;;4843006;29;20034;-91
2023/01/15 02:25:26;;;;;;;121.07;63.95;;;128.40;2252.80;;;;;;4827822;29;20058;-91
2023/01/15 02:28:01;;;;;;;125.50;63.00;;;128.40;2252.80;;;;;;4861236;29;20054;-90
2023/01/15 02:30:37;;;;;;;147.23;70.10;;;128.40;2252.80;;;;;;4845886;29;20401;-91
2023/01/15 02:33:29;;;;;;;122.88;60.72;;;128.40;2252.80;;;;;;4845752;29;20051;-89
2023/01/15 02:35:59;;;;;;;120.32;59.20;;;128.40;2252.80;;;;;;4846146;29;20045;-90
2023/01/15 02:38:30;;;;;;;127.45;61.15;;;128.40;2252.80;;;;;;4876818;29;20119;-91
2023/01/15 02:40:59;;;;;;;120.70;61.42;;;128.50;2252.80;;;;;;4875774;29;20128;-90
2023/01/15 02:43:31;;;;;;;111.22;56.55;;;128.60;2252.80;;;;;;4876422;29;20041;-90
2023/01/15 02:45:59;;;;;;;105.65;58.53;;;128.70;2252.80;;;;;;4877031;29;20029;-90
2023/01/15 02:48:28;;;;;;;114.57;59.83;;;128.80;2252.80;;;;;;4876251;29;20068;-90
2023/01/15 02:51:11;;;;;;;129.02;62.25;;;128.80;2252.80;;;;;;4875956;29;20038;-89
2023/01/15 02:53:38;;;;;;;112.07;57.70;;;128.70;2252.80;;;;;;4876014;29;20537;-89
2023/01/15 02:56:12;;;;;;;124.03;61.22;;;128.80;2252.80;;;;;;4875751;29;20041;-90
2023/01/15 02:58:40;;;;;;;120.35;64.00;;;128.80;2252.80;;;;;;4876137;29;20025;-87
2023/01/15 03:01:30;;;;;;;121.03;64.43;;;128.70;2252.80;;;;;;4875748;29;20056;-89
2023/01/15 03:04:09;;;;;;;128.05;63.15;;;128.70;2252.80;;;;;;4876448;29;20038;-90
2023/01/15 03:06:40;;;;;;;124.07;65.13;;;128.60;2252.80;;;;;;4876661;29;20477;-90
2023/01/15 03:09:07;;;;;;;133.70;66.43;;;128.50;2252.80;;;;;;4861201;29;20150;-90
2023/01/15 03:11:43;;;;;;;123.72;61.03;;;128.50;2252.80;;;;;;4876797;29;20037;-90
2023/01/15 03:14:34;;;;;;;135.75;64.90;;;128.50;2252.80;;;;;;4876653;29;20030;-90
2023/01/15 03:17:13;;;;;;;148.93;71.72;;;128.50;2252.80;;;;;;4876610;29;20034;-91
2023/01/15 03:19:49;;;;;;;133.50;64.93;;;128.60;2252.80;;;;;;4876509;29;20025;-89
2023/01/15 03:22:15;;;;;;;129.77;62.60;;;128.60;2252.80;;;;;;4877383;29;20044;-90
2023/01/15 03:24:43;;;;;;;129.07;66.13;;;128.50;2252.80;;;;;;4864761;29;20033;-91
2023/01/15 03:27:10;;;;;;;125.55;61.75;;;128.50;2252.80;;;;;;4880016;29;20065;-90
2023/01/15 03:29:38;;;;;;;127.93;61.47;;;128.50;2252.80;;;;;;4865007;29;20493;-91
2023/01/15 03:32:05;;;;;;;111.78;60.00;;;128.60;2252.80;;;;;;4880293;29;20025;-91
2023/01/15 03:34:52;;;;;;;111.93;55.63;;;128.60;2252.80;;;;;;4880073;29;20030;-91
2023/01/15 03:37:20;;;;;;;106.03;57.78;;;128.70;2252.80;;;;;;4880103;29;20034;-90
2023/01/15 03:39:46;;;;;;;104.88;55.78;;;128.80;2252.80;;;;;;4879863;29;20045;-90
2023/01/15 03:42:37;;;;;;;117.10;53.95;;;128.80;2252.80;;;;;;4879912;29;20033;-90
2023/01/15 03:45:15;;;;;;;112.32;55.40;;;128.80;2252.80;;;;;;4864177;29;20029;-90
2023/01/15 03:48:09;;;;;;;110.05;51.90;;;128.70;2252.80;;;;;;4864290;29;20026;-91
2023/01/15 03:50:54;;;;;;;110.40;52.03;;;128.80;2252.80;;;;;;4879757;29;20033;-89
2023/01/15 03:53:32;;;;;;;104.40;52.88;;;128.70;2252.80;;;;;;4879846;29;20030;-89
2023/01/15 03:56:25;;;;;;;101.80;47.55;;;128.80;2252.80;;;;;;4879821;29;20389;-90
2023/01/15 03:59:20;;;;;;;95.65;48.05;;;128.80;2252.80;;;;;;4864246;29;20068;-90
2023/01/15 04:01:48;;;;;;;98.65;48.67;;;128.80;2252.80;;;;;;4879900;29;20044;-90
2023/01/15 04:04:14;;;;;;;89.15;46.63;;;128.70;2252.80;;;;;;4879657;29;20610;-90
2023/01/15 04:06:42;;;;;;;98.28;50.33;;;128.90;2252.80;;;;;;4879769;29;20037;-90
2023/01/15 04:09:10;;;;;;;98.75;50.50;;;128.90;2252.80;;;;;;4879589;29;20040;-90
2023/01/15 04:11:35;;;;;;;98.72;52.00;;;128.90;2252.80;;;;;;4879437;29;20426;-89
2023/01/15 04:14:01;;;;;;;98.63;51.10;;;128.90;2252.80;;;;;;4879185;29;20035;-90
2023/01/15 04:16:29;;;;;;;105.63;56.80;;;128.80;2252.80;;;;;;4879670;29;20038;-90
2023/01/15 04:18:55;;;;;;;104.47;54.80;;;128.80;2252.80;;;;;;4879242;29;20037;-89
2023/01/15 04:21:20;;;;;;;110.72;54.28;;;128.90;2252.80;;;;;;4879107;29;20044;-89
2023/01/15 04:23:46;;;;;;;108.57;55.00;;;128.80;2252.80;;;;;;4879264;29;20371;-90
2023/01/15 04:26:13;;;;;;;110.00;53.17;;;128.80;2252.80;;;;;;4878927;29;20058;-90
2023/01/15 04:28:39;;;;;;;101.40;50.17;;;128.80;2252.80;;;;;;4879426;29;20036;-91
2023/01/15 04:31:05;;;;;;;119.90;53.78;;;128.80;2252.80;;;;;;4879259;29;20462;-91
2023/01/15 04:33:30;;;;;;;114.13;55.72;;;128.70;2252.80;;;;;;4878800;29;20033;-91
2023/01/15 04:36:01;;;;;;;116.28;53.05;;;128.80;2252.80;;;;;;4864637;29;20030;-88
2023/01/15 04:38:27;;;;;;;106.57;51.60;;;128.80;2252.80;;;;;;4849802;29;20029;-90
2023/01/15 04:46:24;;;;;;;147.23;60.75;;;128.80;2252.80;;;;;;4864327;29;20085;-91
2023/01/15 04:48:51;;;;;;;128.43;56.58;;;128.80;2252.80;;;;;;4848087;29;20069;-90
2023/01/15 04:51:17;;;;;;;114.90;55.80;;;128.70;2252.80;;;;;;4848074;29;20026;-89
2023/01/15 04:53:43;;;;;;;131.85;56.92;;;128.70;2252.80;;;;;;4847981;29;20147;-92
2023/01/15 04:56:08;;;;;;;138.27;58.58;;;128.80;2252.80;;;;;;4848146;29;20033;-90
2023/01/15 04:58:35;;;;;;;117.88;61.35;;;128.80;2252.80;;;;;;4848062;29;20029;-90
2023/01/15 05:01:01;;;;;;;129.35;63.83;;;128.80;2252.80;;;;;;4847853;29;20033;-90
2023/01/15 05:03:30;;;;;;;123.70;59.33;;;128.80;2252.80;;;;;;4848105;29;20088;-90
2023/01/15 05:06:01;;;;;;;118.55;55.75;;;128.80;2252.80;;;;;;4848009;29;20033;-89
2023/01/15 05:08:27;;;;;;;120.00;55.90;;;128.90;2252.80;;;;;;4847459;29;20037;-91
2023/01/15 05:10:53;;;;;;;119.72;56.00;;;128.90;2252.80;;;;;;4847750;29;20061;-91
2023/01/15 05:13:19;;;;;;;124.60;57.97;;;128.90;2252.80;;;;;;4847780;29;20062;-90
2023/01/15 05:15:45;;;;;;;125.18;72.82;;;128.80;2252.80;;;;;;4847662;29;20022;-91
2023/01/15 05:18:14;;;;;;;157.43;61.92;;;128.90;2252.80;;;;;;4847541;29;20030;-91
2023/01/15 05:20:41;;;;;;;142.73;60.47;;;128.80;2252.80;;;;;;4847402;29;20072;-90
2023/01/15 05:23:07;;;;;;;144.43;63.35;;;128.80;2252.80;;;;;;4847506;29;20458;-91
2023/01/15 05:25:36;;;;;;;128.82;59.05;;;128.80;2252.80;;;;;;4847457;29;20080;-93
2023/01/15 05:28:01;;;;;;;136.07;60.42;;;128.80;2252.80;;;;;;4847375;29;20046;-89
2023/01/15 05:30:27;;;;;;;127.68;60.67;;;128.80;2252.80;;;;;;4847221;29;20166;-90
2023/01/15 05:32:53;;;;;;;117.13;56.00;;;128.80;2252.80;;;;;;4847241;29;20133;-91
2023/01/15 05:35:19;;;;;;;130.50;64.53;;;128.80;2252.80;;;;;;4847095;29;20089;-90
2023/01/15 05:37:44;;;;;;;115.53;57.05;;;128.80;2252.80;;;;;;4847203;29;20030;-91
2023/01/15 05:40:11;;;;;;;121.20;59.72;;;128.80;2252.80;;;;;;4847050;29;20068;-90
2023/01/15 05:42:37;;;;;;;106.22;55.15;;;128.90;2252.80;;;;;;4847284;29;20089;-90
2023/01/15 05:45:03;;;;;;;92.10;47.30;;;128.80;2252.80;;;;;;4846690;29;20033;-92
2023/01/15 05:47:28;;;;;;;87.93;45.17;;;128.80;2252.80;;;;;;4847070;29;20040;-91
2023/01/15 05:49:54;;;;;;;79.13;45.10;;;128.90;2252.80;;;;;;4847024;29;20038;-91
2023/01/15 05:52:20;;;;;;;86.15;46.80;;;128.90;2252.80;;;;;;4847048;29;20042;-92
2023/01/15 05:54:49;;;;;;;90.93;47.15;;;128.90;2252.80;;;;;;4846966;29;20037;-91
2023/01/15 05:57:15;;;;;;;92.85;48.05;;;128.90;2252.80;;;;;;4846677;29;20466;-91
2023/01/15 05:59:41;;;;;;;93.82;48.30;;;128.90;2252.80;;;;;;4846526;29;20026;-89
2023/01/15 06:02:06;;;;;;;86.63;47.75;;;128.90;2252.80;;;;;;4846418;29;20041;-92
2023/01/15 06:04:32;;;;;;;89.30;45.72;;;128.90;2252.80;;;;;;4846633;29;20085;-91
2023/01/15 06:06:58;;;;;;;82.90;45.95;;;128.90;2252.80;;;;;;4846763;29;20037;-91
2023/01/15 06:09:26;;;;;;;85.32;52.22;;;128.90;2252.80;;;;;;4846678;29;20065;-90
2023/01/15 06:11:53;;;;;;;84.00;47.60;;;128.90;2252.80;;;;;;4846535;29;20045;-91
2023/01/15 06:14:18;;;;;;;88.03;48.75;;;128.90;2252.80;;;;;;4854530;29;20034;-92
2023/01/15 06:16:45;;;;;;;82.32;45.90;;;128.90;2252.80;;;;;;4877200;29;20041;-91
2023/01/15 06:19:12;;;;;;;79.10;44.40;;;128.90;2252.80;;;;;;4876749;29;20132;-92
2023/01/15 06:21:38;;;;;;;79.63;44.63;;;128.90;2252.80;;;;;;4877117;29;20034;-91
2023/01/15 06:24:05;;;;;;;81.30;45.28;;;128.90;2252.80;;;;;;4877053;29;20124;-91
2023/01/15 06:26:30;;;;;;;80.65;43.85;;;153.90;2252.80;;;;;;4884075;29;20049;-91
2023/01/15 06:28:56;;;;;;;80.60;44.60;;;153.60;2252.80;;;;;;4880237;29;20503;-90
2023/01/15 06:31:25;;;;;;;83.57;47.58;;;153.60;2252.80;;;;;;4880333;29;20504;-91
2023/01/15 06:33:51;;;;;;;85.28;49.47;;;153.80;2252.80;;;;;;4880222;29;20029;-91
2023/01/15 06:36:20;;;;;;;82.25;47.03;;;153.60;2252.80;;;;;;4880203;29;20124;-92
2023/01/15 06:38:47;;;;;;;89.13;52.22;;;128.90;2252.80;;;;;;4880213;29;20033;-91
2023/01/15 06:49:34;;;;;;;79.70;46.25;;;128.90;2252.80;;;;;;4881412;29;20040;-90
2023/01/15 06:52:00;;;;;;;89.28;48.05;;;128.80;2252.80;;;;;;4879880;29;20029;-91
2023/01/15 06:54:27;;;;;;;78.10;50.30;;;128.90;2252.80;;;;;;4880126;29;20102;-91
2023/01/15 06:56:53;;;;;;;80.57;47.78;;;128.90;2252.80;;;;;;4879302;29;20056;-90
2023/01/15 06:59:19;;;;;;;75.25;45.10;;;153.60;2252.80;;;;;;4879707;29;20037;-90
2023/01/15 07:01:46;;;;;;;66.72;41.53;;;128.70;2252.80;;;;;;4879836;29;20037;-92
2023/01/15 07:04:12;;;;;;;72.85;44.15;;;153.60;2252.80;;;;;;4879869;29;20037;-91
2023/01/15 07:06:38;;;;;;;75.43;47.30;;;153.90;2252.80;;;;;;4879798;29;20060;-89
2023/01/15 07:09:03;;;;;;;108.57;70.45;;;153.60;2252.80;;;;;;4871347;29;20052;-89
2023/01/15 07:11:29;;;;;;;128.75;72.80;;;153.60;2252.80;;;;;;4861159;29;20042;-90
2023/01/15 07:14:04;;;;;;;106.25;61.88;;;153.70;2252.80;;;;;;4861099;29;20033;-91
2023/01/15 07:16:34;;;;;;;94.38;52.97;;;153.70;2252.80;;;;;;4861064;29;20034;-90
2023/01/15 07:19:01;;;;;;;79.53;50.20;;;153.80;2252.80;;;;;;4861114;29;20044;-90
2023/01/15 07:21:27;;;;;;;80.28;48.72;;;153.80;2252.80;;;;;;4860743;29;20076;-89
2023/01/15 07:23:53;;;;;;;71.78;44.47;;;153.80;2252.80;;;;;;4860951;29;20484;-90
2023/01/15 07:26:19;;;;;;;78.90;45.35;;;153.80;2252.80;;;;;;4860485;29;20053;-90
2023/01/15 07:28:44;;;;;;;69.38;42.97;;;153.80;2252.80;;;;;;4861209;29;20477;-90
2023/01/15 07:31:10;;;;;;;69.90;43.40;;;153.80;2252.80;;;;;;4860617;29;20033;-90
2023/01/15 07:33:37;;;;;;;72.50;44.63;;;153.90;2252.80;;;;;;4861257;29;20437;-91
2023/01/15 07:36:04;;;;;;;71.28;43.53;;;153.90;2252.80;;;;;;4862133;29;20030;-92
2023/01/15 07:38:30;;;;;;;75.45;44.78;;;153.90;2227.20;;;;;;4843067;29;20037;-89
2023/01/15 07:51:54;;;;;;;81.15;50.97;;;153.90;2252.80;;;;;;4847925;29;20194;-90
2023/01/15 07:54:20;;;;;;;101.25;63.47;;;153.80;2252.80;;;;;;4872913;29;20051;-93
2023/01/15 07:56:46;;;;;;;114.32;69.75;;;153.80;2252.80;;;;;;4860993;29;20033;-91
2023/01/15 07:59:11;;;;;;;106.85;67.80;;;153.90;2252.80;;;;;;4860709;29;20033;-91
2023/01/15 08:01:37;;;;;;;105.80;67.32;;;154.00;2201.60;;;;;;4860778;29;20065;-92
2023/01/15 08:04:03;;;;;;;94.28;61.00;;;154.00;2252.80;;;;;;4860530;29;20165;-91
2023/01/15 08:06:29;;;;;;;102.72;64.00;;;154.00;2252.80;;;;;;4859387;29;20082;-89
2023/01/15 08:08:54;;;;;;;105.75;69.18;;;154.10;2252.80;;;;;;4860697;29;20029;-90
2023/01/15 08:16:48;;;;;;;87.63;57.90;;;154.20;2252.80;;;;;;4846325;29;20079;-92
2023/01/15 08:19:14;;;;;;;92.72;59.40;;;154.20;2252.80;;;;;;4845407;29;20034;-90
2023/01/15 08:21:40;;;;;;;94.35;61.42;;;154.10;2252.80;;;;;;4845614;29;20033;-89
2023/01/15 08:24:06;;;;;;;95.93;61.75;;;154.30;2252.80;;;;;;4845540;29;20042;-92
2023/01/15 08:26:32;;;;;;;95.80;60.03;;;154.30;2252.80;;;;;;4845341;29;20533;-92
2023/01/15 08:28:58;;;;;;;92.28;58.85;;;154.30;2252.80;;;;;;4857363;29;20030;-92
2023/01/15 08:31:23;;;;;;;83.60;53.53;;;154.30;2252.80;;;;;;4868898;29;20113;-90
2023/01/15 08:33:52;;;;;;;78.15;50.53;;;154.40;2252.80;;;;;;4874670;29;20030;-91
2023/01/15 08:36:18;;;;;;;92.15;57.42;;;154.40;2252.80;;;;;;4872767;29;20029;-91
2023/01/15 08:39:00;;;;;;;77.32;53.63;;;154.50;2252.80;;;;;;4869726;29;20096;-91
2023/01/15 08:41:48;;;;;;;73.05;46.72;;;179.20;2252.80;;;;;;4867845;29;20037;-91
2023/01/15 08:44:16;;;;;;;78.50;52.15;;;179.20;2252.80;;;;;;4860478;29;20050;-91
2023/01/15 08:46:42;;;;;;;75.25;47.65;;;179.30;2252.80;;;;;;4860471;29;20033;-91
2023/01/15 08:49:11;;;;;;;70.28;45.42;;;179.20;2252.80;;;;;;4865660;29;20035;-91
2023/01/15 08:51:37;;;;;;;60.67;43.78;;;179.30;2252.80;;;;;;4866588;29;20113;-92
2023/01/15 08:54:02;;;;;;;69.35;44.67;;;179.40;2252.80;;;;;;4866411;29;20466;-90
2023/01/15 08:56:28;;;;;;;65.78;45.00;;;179.40;2252.80;;;;;;4874191;29;20080;-89
2023/01/15 08:58:54;;;;;;;73.43;47.03;;;179.40;2252.80;;;;;;4873840;29;20434;-90
2023/01/15 09:01:19;;;;;;;82.15;52.22;;;179.50;2252.80;;;;;;4873390;29;20073;-91
2023/01/15 09:03:48;;;;;;;75.63;51.63;;;179.60;2252.80;;;;;;4870962;29;20135;-91
2023/01/15 09:06:14;;;;;;;54.88;36.65;;;179.50;2252.80;;;;;;4868151;29;20069;-89
2023/01/15 09:08:39;;;;;;;49.72;32.70;;;179.60;2252.80;;;;;;4868075;29;20426;-89
2023/01/15 09:11:08;;;;;;;49.47;35.25;;;179.60;2252.80;;;;;;4867233;29;20130;-90
2023/01/15 09:13:36;;;;;;;45.08;30.13;;;179.70;2252.80;;;;;;4871036;29;20029;-89
2023/01/15 09:16:04;;;;;;;48.42;31.08;;;179.80;2252.80;;;;;;4870588;29;20462;-86
2023/01/15 09:18:30;;;;;;;45.08;28.45;;;179.80;2252.80;;;;;;4876083;29;20049;-88
2023/01/15 09:20:55;;;;;;;43.75;30.95;;;179.80;2252.80;;;;;;4870395;29;20037;-89
2023/01/15 09:23:21;;;;;;;38.17;26.90;;;179.90;2252.80;;;;;;4873437;29;20033;-89
2023/01/15 09:26:05;;;;;;;46.20;29.23;;;179.90;2252.80;;;;;;4872281;29;20075;-84
2023/01/15 09:28:32;;;;;;;55.22;37.45;;;179.90;2252.80;;;;;;4845368;29;20032;-90
2023/01/15 09:30:58;;;;;;;47.42;30.85;;;179.90;2252.80;;;;;;4856380;29;20065;-89
2023/01/15 09:33:24;;;;;;;41.67;26.85;;;204.90;2252.80;;;;;;4857552;29;20474;-91
2023/01/15 09:35:50;;;;;;;44.72;29.10;;;180.00;2252.80;;;;;;4857531;29;20108;-90
2023/01/15 09:38:19;;;;;;;46.03;30.48;;;180.10;2252.80;;;;;;4855303;29;20037;-91
2023/01/15 09:40:58;;;;;;;52.10;36.28;;;180.10;2252.80;;;;;;4861019;29;20029;-87
2023/01/15 09:43:42;;;;;;;53.58;35.13;;;180.10;2252.80;;;;;;4863933;29;20063;-85
2023/01/15 09:46:24;;;;;;;47.78;30.88;;;180.10;2252.80;;;;;;4864857;29;20056;-89
2023/01/15 09:49:03;;;;;;;48.22;31.33;;;180.10;2252.80;;;;;;4852967;29;20060;-88
2023/01/15 09:51:56;;;;;;;54.80;35.08;;;180.10;2252.80;;;;;;4853234;29;20458;-90
2023/01/15 09:54:44;;;;;;;47.13;29.92;;;180.10;2252.80;;;;;;4851523;29;20497;-88
2023/01/15 09:57:13;;;;;;;47.03;29.85;;;180.10;2252.80;;;;;;4855844;29;20026;-89
2023/01/15 09:59:43;;;;;;;50.78;34.85;;;180.10;2252.80;;;;;;4849935;29;20161;-89
2023/01/15 10:02:19;;;;;;;49.03;33.42;;;180.10;2252.80;;;;;;4848668;29;20065;-94
2023/01/15 10:04:58;;;;;;;46.65;30.60;;;180.10;2252.80;;;;;;4859174;29;20116;-90
2023/01/15 10:07:52;;;;;;;50.28;33.28;;;180.00;2252.80;;;;;;4846737;29;20037;-91
2023/01/15 10:10:23;;;;;;;62.05;39.17;;;180.00;2252.80;;;;;;4853441;29;20037;-88
2023/01/15 10:12:56;;;;;;;62.35;38.35;;;180.00;2252.80;;;;;;4860359;29;20433;-91
2023/01/15 10:15:42;;;;;;;63.00;40.35;;;180.00;2252.80;;;;;;4864712;29;20074;-89
2023/01/15 10:18:15;;;;;;;87.15;45.45;;;180.10;2252.80;;;;;;4845765;29;20064;-90
2023/01/15 10:20:48;;;;;;;61.08;38.05;;;180.10;2252.80;;;;;;4852056;29;20037;-91
2023/01/15 10:23:39;;;;;;;62.90;39.80;;;180.10;2252.80;;;;;;4859143;29;20390;-84
2023/01/15 10:26:25;;;;;;;53.85;33.88;;;180.10;2252.80;;;;;;4876711;29;20048;-83
2023/01/15 10:28:51;;;;;;;53.25;34.63;;;180.10;2252.80;;;;;;4869854;29;20024;-83
2023/01/15 10:31:20;;;;;;;64.03;37.88;;;180.10;2252.80;;;;;;4869880;29;20014;-86
2023/01/15 10:34:10;;;;;;;55.00;36.00;;;180.10;2252.80;;;;;;4868271;29;20401;-88
2023/01/15 10:36:41;;;;;;;43.83;29.63;;;180.10;2252.80;;;;;;4865802;29;20409;-86
2023/01/15 10:39:15;;;;;;;51.78;36.30;;;180.10;2252.80;;;;;;4850804;29;20036;-85
2023/01/15 10:42:05;;;;;;;48.38;31.77;;;180.10;2252.80;;;;;;4858882;29;20040;-86
2023/01/15 10:45:04;;;;;;;48.80;30.90;;;180.10;2252.80;;;;;;4851916;29;20061;-86
2023/01/15 10:47:35;;;;;;;53.55;34.92;;;180.10;2252.80;;;;;;4856546;29;20025;-88
2023/01/15 10:50:23;;;;;;;46.80;32.70;;;180.10;2252.80;;;;;;4848794;29;20443;-85
2023/01/15 10:53:32;;;;;;;51.38;34.67;;;204.80;2252.80;;;;;;4862560;29;20037;-88
2023/01/15 10:56:28;;;;;;;45.58;31.15;;;204.80;2252.80;;;;;;4817646;29;20072;-88
2023/01/15 10:59:04;;;;;;;40.58;27.65;;;204.80;2252.80;;;;;;4845445;29;20057;-88
2023/01/15 11:01:30;;;;;;;43.40;29.40;;;204.80;2252.80;;;;;;4845546;29;20116;-87
2023/01/15 11:03:56;;;;;;;51.88;33.85;;;204.90;2252.80;;;;;;4845621;29;20255;-91
2023/01/15 11:06:24;;;;;;;53.75;34.85;;;204.90;2252.80;;;;;;4848109;29;20459;-84
2023/01/15 11:08:54;;;;;;;47.33;31.17;;;204.90;2252.80;;;;;;4844735;29;20481;-90
2023/01/15 11:20:28;;;;;;;52.33;34.92;;;205.10;2252.80;;;;;;4861817;29;20037;-87
2023/01/15 11:22:56;;;;;;;50.03;32.28;;;205.00;2252.80;;;;;;4844049;29;20037;-80
2023/01/15 11:25:30;;;;;;;46.90;33.10;;;205.10;2252.80;;;;;;4844342;29;20032;-86
2023/01/15 11:27:58;;;;;;;60.40;39.72;;;205.20;2252.80;;;;;;4844481;29;20053;-82
2023/01/15 11:30:33;;;;;;;44.83;29.08;;;205.20;2252.80;;;;;;4861025;29;20044;-82
2023/01/15 11:33:02;;;;;;;48.63;29.75;;;205.20;2252.80;;;;;;4844918;29;20081;-88
2023/01/15 11:35:29;;;;;;;39.63;27.52;;;205.30;2252.80;;;;;;4843335;29;20128;-85
2023/01/15 11:38:07;;;;;;;41.17;24.67;;;205.40;2252.80;;;;;;4844775;29;20033;-86
2023/01/15 11:40:33;;;;;;;36.13;24.50;;;205.40;2252.80;;;;;;4843748;29;20470;-88
2023/01/15 11:51:51;;;;;;;36.42;24.10;;;230.60;2252.80;;;;;;4872364;29;20040;-89
2023/01/15 11:54:17;;;;;;;50.08;35.22;;;230.60;2252.80;;;;;;4855940;29;20025;-91
2023/01/15 11:56:44;;;;;;;52.38;38.53;;;230.60;2252.80;;;;;;4857034;29;20427;-88
2023/01/15 11:59:18;;;;;;;50.72;35.17;;;230.60;2252.80;;;;;;4859014;29;20037;-89
2023/01/15 12:01:58;;;;;;;41.53;29.27;;;230.50;2252.80;;;;;;4851494;29;20033;-86
2023/01/15 12:04:36;;;;;;;31.58;21.85;;;230.40;2252.80;;;;;;4864707;29;20029;-86
2023/01/15 12:07:03;;;;;;;26.88;19.13;;;230.40;2252.80;;;;;;4847414;29;20057;-84
2023/01/15 12:09:45;;;;;;;26.95;19.08;;;230.40;2252.80;;;;;;4829149;29;20029;-85
2023/01/15 12:12:27;;;;;;;29.58;21.17;;;230.70;2252.80;;;;;;4843449;29;20034;-82
2023/01/15 12:15:12;;;;;;;26.65;18.27;;;231.20;2252.80;;;;;;4858518;29;20131;-87
2023/01/15 12:17:59;;;;;;;25.13;18.60;;;256.50;2252.80;;;;;;4868283;29;20033;-87
2023/01/15 12:20:24;;;;;;;27.42;19.85;;;256.90;2252.80;;;;;;4867264;29;20088;-82
2023/01/15 12:23:13;;;;;;;30.85;20.23;;;256.90;2252.80;;;;;;4884304;29;20029;-87
2023/01/15 12:25:45;;;;;;;31.95;22.08;;;281.90;2278.40;;;;;;4866975;29;20504;-84
2023/01/15 12:28:13;;;;;;;32.88;22.98;;;282.10;2278.40;;;;;;4866423;29;20077;-88
2023/01/15 12:30:42;;;;;;;26.23;19.58;;;282.10;2278.40;;;;;;4866517;29;20037;-85
2023/01/15 12:33:38;;;;;;;26.83;18.02;;;282.30;2278.40;;;;;;4866515;29;20049;-83
2023/01/15 12:36:30;;;;;;;32.95;22.60;;;282.20;2278.40;;;;;;4860886;29;20483;-83
2023/01/15 12:39:02;;;;;;;31.48;22.90;;;307.20;2304.00;;;;;;4882990;29;20025;-86
2023/01/15 12:47:42;;;;;;;25.15;18.08;;;281.90;2278.40;;;;;;4845051;29;20036;-87
2023/01/15 12:50:13;;;;;;;42.22;26.88;;;281.90;2278.40;;;;;;4844327;29;20062;-84
2023/01/15 12:52:42;;;;;;;35.45;24.60;;;282.20;2278.40;;;;;;4843716;29;20034;-84
2023/01/15 12:55:28;;;;;;;23.23;17.65;;;282.40;2278.40;;;;;;4827795;29;20026;-84
2023/01/15 12:58:04;;;;;;;23.13;18.10;;;307.20;2304.00;;;;;;4845798;29;20029;-85
2023/01/15 13:00:42;;;;;;;32.78;22.20;;;282.40;2278.40;;;;;;4828861;29;20033;-87
2023/01/15 13:03:11;;;;;;;28.80;22.00;;;282.50;2278.40;;;;;;4845134;29;20440;-86
2023/01/15 13:05:41;;;;;;;28.48;21.33;;;307.40;2304.00;;;;;;4845076;29;20037;-86
2023/01/15 13:08:15;;;;;;;31.50;22.95;;;307.60;2304.00;;;;;;4828959;29;20106;-82
2023/01/15 13:10:41;;;;;;;35.50;23.83;;;307.70;2304.00;;;;;;4828915;29;20514;-84